Terminal Aerodrome Forecast
Issued by NWS

Current Version | Previous Version | Text Only | Print | Product List | Glossary On
Versions: 1 2 3 4 5 6 7 8 9 10 11 12 13 14 15 16
549
FTUS45 KRIW 240532
TAFRKS
TAF
KRKS 240532Z 2406/2506 30007KT P6SM SKC
     FM241000 VRB06KT P6SM SKC
     FM242000 28011G18KT P6SM SKC
     FM250200 30007KT P6SM SKC=

USA.gov is the U.S. government's official web portal to all federal, state and local government web resources and services.